createdAt,value
2023-04-08T00:00:37.841Z,26.25
2023-04-08T00:03:23.326Z,27.52
2023-04-08T00:06:08.539Z,24.05
2023-04-08T00:08:53.763Z,25.92
2023-04-08T00:11:38.926Z,28.58
2023-04-08T00:14:24.269Z,27.15
2023-04-08T00:17:09.541Z,21.75
2023-04-08T00:19:55.421Z,24.88
2023-04-08T00:22:40.738Z,25.20
2023-04-08T00:25:26.079Z,30.67
2023-04-08T00:28:11.264Z,27.52
2023-04-08T00:30:56.238Z,22.25
2023-04-08T00:33:41.322Z,31.38
2023-04-08T00:36:27.755Z,32.58
2023-04-08T00:39:13.702Z,22.75
2023-04-08T00:41:58.984Z,22.58
2023-04-08T00:44:44.149Z,23.13
2023-04-08T00:47:29.125Z,29.60
2023-04-08T00:50:14.360Z,26.80
2023-04-08T00:52:59.553Z,29.40
2023-04-08T00:55:44.877Z,24.77
2023-04-08T00:58:30.389Z,26.00
2023-04-08T01:01:30.395Z,24.95
2023-04-08T01:04:29.057Z,23.00
2023-04-08T01:07:22.229Z,21.23
2023-04-08T01:10:31.459Z,18.17
2023-04-08T01:13:18.871Z,16.38
2023-04-08T01:16:04.359Z,19.38
2023-04-08T01:18:52.048Z,13.65
2023-04-08T01:21:38.787Z,15.60
2023-04-08T01:24:29.782Z,17.00
2023-04-08T01:27:16.861Z,18.25
2023-04-08T01:30:04.654Z,15.25
2023-04-08T01:32:52.250Z,19.13
2023-04-08T01:35:38.188Z,16.45
2023-04-08T01:38:26.536Z,15.07
2023-04-08T01:41:11.777Z,28.58
2023-04-08T01:43:58.143Z,32.35
2023-04-08T01:46:43.569Z,28.33
2023-04-08T01:49:30.554Z,23.83
2023-04-08T01:52:18.326Z,24.17
2023-04-08T01:55:04.156Z,22.13
2023-04-08T01:57:52.056Z,23.48
2023-04-08T02:00:39.053Z,32.97
2023-04-08T02:03:25.767Z,56.00
2023-04-08T02:06:11.046Z,22.85
2023-04-08T02:08:56.266Z,18.83
2023-04-08T02:11:41.608Z,19.50
2023-04-08T02:14:27.067Z,24.25
2023-04-08T02:17:18.107Z,22.42
2023-04-08T02:20:10.072Z,20.30
2023-04-08T02:23:13.194Z,25.70
2023-04-08T02:25:58.640Z,35.05
2023-04-08T02:28:43.580Z,44.63
2023-04-08T02:31:28.738Z,67.68
2023-04-08T02:34:15.196Z,68.75
2023-04-08T02:37:00.426Z,33.60
2023-04-08T02:39:45.667Z,69.68
2023-04-08T02:42:30.951Z,141.70
2023-04-08T02:45:16.249Z,117.20
2023-04-08T02:48:02.110Z,99.70
2023-04-08T02:50:47.264Z,106.03
2023-04-08T02:53:31.982Z,55.30
2023-04-08T02:56:17.002Z,65.95
2023-04-08T02:59:02.208Z,115.00
2023-04-08T03:01:47.203Z,139.95
2023-04-08T03:04:32.027Z,225.93
2023-04-08T03:07:16.985Z,206.10
2023-04-08T03:10:03.172Z,231.77
2023-04-08T03:12:48.372Z,193.25
2023-04-08T03:15:33.639Z,158.18
2023-04-08T03:18:18.860Z,201.73
2023-04-08T03:21:04.020Z,156.05
2023-04-08T03:23:49.031Z,161.40
2023-04-08T03:26:34.030Z,93.50
2023-04-08T03:29:19.361Z,123.75
2023-04-08T03:32:04.910Z,116.03
2023-04-08T03:34:53.524Z,90.28
2023-04-08T03:37:38.582Z,50.55
2023-04-08T03:40:23.399Z,75.85
2023-04-08T03:43:08.854Z,71.20
2023-04-08T03:45:54.030Z,78.20
2023-04-08T03:48:39.131Z,87.47
2023-04-08T03:51:24.239Z,49.55
2023-04-08T03:54:09.412Z,49.15
2023-04-08T03:56:54.612Z,70.07
2023-04-08T03:59:41.099Z,86.43
2023-04-08T04:02:26.242Z,60.35
2023-04-08T04:05:11.491Z,46.70
2023-04-08T04:07:58.340Z,89.70
2023-04-08T04:10:43.169Z,84.80
2023-04-08T04:13:28.054Z,62.85
2023-04-08T04:16:13.278Z,83.80
2023-04-08T04:18:58.391Z,125.80
2023-04-08T04:21:44.345Z,68.68
2023-04-08T04:24:29.660Z,67.57
2023-04-08T04:27:15.528Z,179.80
2023-04-08T04:30:01.054Z,167.20
2023-04-08T04:32:46.266Z,138.45
2023-04-08T04:35:32.029Z,167.77
2023-04-08T04:38:17.324Z,161.50
2023-04-08T04:41:02.469Z,128.63
2023-04-08T04:43:47.728Z,59.55
2023-04-08T04:46:32.753Z,93.95
2023-04-08T04:49:18.342Z,71.47
2023-04-08T04:52:03.318Z,125.10
2023-04-08T04:54:48.149Z,132.45
2023-04-08T04:57:33.765Z,112.60
2023-04-08T05:00:18.875Z,110.13
2023-04-08T05:03:04.102Z,170.82
2023-04-08T05:05:53.459Z,126.45
2023-04-08T05:08:38.970Z,93.90
2023-04-08T05:11:23.913Z,79.00
2023-04-08T05:14:08.959Z,51.10
2023-04-08T05:16:53.917Z,76.32
2023-04-08T05:19:39.258Z,82.68
2023-04-08T05:22:24.549Z,53.33
2023-04-08T05:25:10.035Z,68.95
2023-04-08T05:27:56.020Z,124.75
2023-04-08T05:30:52.436Z,99.05
2023-04-08T05:33:37.710Z,46.95
2023-04-08T05:36:22.976Z,51.17
2023-04-08T05:39:07.870Z,68.20
2023-04-08T05:41:52.896Z,56.67
2023-04-08T05:44:37.601Z,149.45
2023-04-08T05:47:22.445Z,80.07
2023-04-08T05:50:08.183Z,85.85
2023-04-08T05:52:53.625Z,68.65
2023-04-08T05:55:38.868Z,90.72
2023-04-08T05:58:23.958Z,115.32
2023-04-08T06:01:09.151Z,102.07
2023-04-08T06:03:56.282Z,179.82
2023-04-08T06:06:41.697Z,73.35
2023-04-08T06:09:26.852Z,134.45
2023-04-08T06:12:12.163Z,151.60
2023-04-08T06:14:57.766Z,109.07
2023-04-08T06:17:43.111Z,93.80
2023-04-08T06:20:28.377Z,93.07
2023-04-08T06:23:14.272Z,28.38
2023-04-08T06:25:59.461Z,59.65
2023-04-08T06:28:44.692Z,77.35
2023-04-08T06:31:39.692Z,122.21
2023-04-08T06:34:24.945Z,119.00
2023-04-08T06:37:10.251Z,120.90
2023-04-08T06:39:55.519Z,169.43
2023-04-08T06:42:43.047Z,176.13
2023-04-08T06:45:28.494Z,46.22
2023-04-08T06:48:13.502Z,113.10
2023-04-08T06:51:00.220Z,41.30
2023-04-08T06:53:45.144Z,126.95
2023-04-08T06:56:29.914Z,20.27
2023-04-08T06:59:15.556Z,150.95
2023-04-08T07:02:01.380Z,79.93
2023-04-08T07:04:46.964Z,38.80
2023-04-08T07:07:32.186Z,68.28
2023-04-08T07:10:17.383Z,38.20
2023-04-08T07:13:03.957Z,60.97
2023-04-08T07:15:49.128Z,69.75
2023-04-08T07:18:34.254Z,63.70
2023-04-08T07:21:19.470Z,72.85
2023-04-08T07:24:04.692Z,49.53
2023-04-08T07:26:50.065Z,60.78
2023-04-08T07:29:35.352Z,24.90
2023-04-08T07:32:20.928Z,56.05
2023-04-08T07:35:06.517Z,32.55
2023-04-08T07:37:52.981Z,33.55
2023-04-08T07:40:38.008Z,23.38
2023-04-08T07:43:22.991Z,40.60
2023-04-08T07:46:08.020Z,27.90
2023-04-08T07:48:53.381Z,25.42
2023-04-08T07:51:39.460Z,26.83
2023-04-08T07:54:24.725Z,30.65
2023-04-08T07:57:09.901Z,27.23
2023-04-08T07:59:55.639Z,26.33
2023-04-08T08:02:40.995Z,29.70
2023-04-08T08:05:26.322Z,25.17
2023-04-08T08:08:14.260Z,20.55
2023-04-08T08:10:59.165Z,27.67
2023-04-08T08:13:44.516Z,22.25
2023-04-08T08:16:31.802Z,23.75
2023-04-08T08:19:16.985Z,21.00
2023-04-08T08:22:02.060Z,24.70
2023-04-08T08:24:47.370Z,26.40
2023-04-08T08:27:34.381Z,18.45
2023-04-08T08:30:21.989Z,20.98
2023-04-08T08:33:06.963Z,24.63
2023-04-08T08:35:52.321Z,22.38
2023-04-08T08:38:37.339Z,26.52
2023-04-08T08:41:22.347Z,18.27
2023-04-08T08:44:08.624Z,22.80
2023-04-08T08:46:53.926Z,20.33
2023-04-08T08:49:39.035Z,19.85
2023-04-08T08:52:24.093Z,19.92
2023-04-08T08:55:27.653Z,19.50
2023-04-08T08:58:14.278Z,19.05
2023-04-08T09:00:59.308Z,19.63
2023-04-08T09:03:44.326Z,17.27
2023-04-08T09:06:29.637Z,14.38
2023-04-08T09:09:14.873Z,12.05
2023-04-08T09:12:06.928Z,12.35
2023-04-08T09:15:03.181Z,15.13
2023-04-08T09:17:48.442Z,11.25
2023-04-08T09:20:33.670Z,16.40
2023-04-08T09:23:18.918Z,11.45
2023-04-08T09:26:12.744Z,11.43
2023-04-08T09:29:10.920Z,14.65
2023-04-08T09:32:04.053Z,11.85
2023-04-08T09:34:48.996Z,10.18
2023-04-08T09:37:34.180Z,8.32
2023-04-08T09:40:19.446Z,10.98
2023-04-08T09:43:06.048Z,8.60
2023-04-08T09:45:52.413Z,8.57
2023-04-08T09:48:42.983Z,5.82
2023-04-08T09:51:32.420Z,4.68
2023-04-08T09:54:23.111Z,5.22
2023-04-08T09:57:16.508Z,4.70
2023-04-08T10:00:08.538Z,7.00
2023-04-08T10:03:34.651Z,4.78
2023-04-08T10:06:21.870Z,3.20
2023-04-08T10:09:07.636Z,3.97
2023-04-08T10:11:53.696Z,3.65
2023-04-08T10:14:39.328Z,4.75
2023-04-08T10:17:27.767Z,4.10
2023-04-08T10:20:34.568Z,4.18
2023-04-08T10:23:57.681Z,3.13
2023-04-08T10:26:44.628Z,6.55
2023-04-08T10:29:29.886Z,5.57
2023-04-08T10:32:29.085Z,5.75
2023-04-08T10:35:30.110Z,4.05
2023-04-08T10:38:16.314Z,4.15
2023-04-08T10:41:02.485Z,6.95
2023-04-08T10:43:47.515Z,7.82
2023-04-08T10:46:38.235Z,4.55
2023-04-08T10:49:33.247Z,4.47
2023-04-08T10:52:20.021Z,4.47
2023-04-08T10:55:05.519Z,5.55
2023-04-08T10:57:51.293Z,4.45
2023-04-08T11:00:40.130Z,6.45
2023-04-08T11:03:27.879Z,6.57
2023-04-08T11:06:13.290Z,5.75
2023-04-08T11:09:00.165Z,6.88
2023-04-08T11:11:46.510Z,4.55
2023-04-08T11:14:31.381Z,5.63
2023-04-08T11:17:17.836Z,5.65
2023-04-08T11:20:06.291Z,4.30
2023-04-08T11:22:52.077Z,4.95
2023-04-08T11:25:37.150Z,4.55
2023-04-08T11:28:22.722Z,7.20
2023-04-08T11:31:09.034Z,5.15
2023-04-08T11:33:56.738Z,6.05
2023-04-08T11:36:42.392Z,7.25
2023-04-08T11:39:27.511Z,5.15
2023-04-08T11:42:29.769Z,8.52
2023-04-08T11:45:17.116Z,6.50
2023-04-08T11:48:18.016Z,6.72
2023-04-08T11:51:04.818Z,7.07
2023-04-08T11:53:53.956Z,5.15
2023-04-08T11:56:47.188Z,5.72
2023-04-08T11:59:32.218Z,7.93
2023-04-08T12:02:17.455Z,5.88
2023-04-08T12:05:02.761Z,5.63
2023-04-08T12:07:48.204Z,5.35
2023-04-08T12:10:33.333Z,4.50
2023-04-08T12:13:18.488Z,3.67
2023-04-08T12:16:03.857Z,5.80
2023-04-08T12:18:50.210Z,4.63
2023-04-08T12:21:36.112Z,4.40
2023-04-08T12:24:21.484Z,9.23
2023-04-08T12:27:06.709Z,7.28
2023-04-08T12:29:53.306Z,4.05
2023-04-08T12:32:38.522Z,3.92
2023-04-08T12:35:23.983Z,5.13
2023-04-08T12:38:08.954Z,4.25
2023-04-08T12:40:55.310Z,6.25
2023-04-08T12:43:40.685Z,5.40
2023-04-08T12:46:25.878Z,3.35
2023-04-08T12:49:12.214Z,6.20
2023-04-08T12:51:57.760Z,4.70
2023-04-08T12:54:42.839Z,6.30
2023-04-08T12:57:29.164Z,4.05
2023-04-08T13:00:14.650Z,4.35
2023-04-08T13:02:59.907Z,3.88
2023-04-08T13:05:45.184Z,3.47
2023-04-08T13:08:30.149Z,4.82
2023-04-08T13:11:15.579Z,4.03
2023-04-08T13:14:00.839Z,6.85
2023-04-08T13:16:46.520Z,4.15
2023-04-08T13:19:31.810Z,3.00
2023-04-08T13:22:16.972Z,4.13
2023-04-08T13:25:02.786Z,6.20
2023-04-08T13:27:47.946Z,5.75
2023-04-08T13:30:33.120Z,4.15
2023-04-08T13:33:18.007Z,4.90
2023-04-08T13:36:03.081Z,3.92
2023-04-08T13:38:48.440Z,6.10
2023-04-08T13:41:35.000Z,3.97
2023-04-08T13:44:20.033Z,5.13
2023-04-08T13:47:05.025Z,6.20
2023-04-08T13:49:50.590Z,4.38
2023-04-08T13:52:35.487Z,4.80
2023-04-08T13:55:21.056Z,4.75
2023-04-08T13:58:11.256Z,8.15
2023-04-08T14:00:59.513Z,4.30
2023-04-08T14:03:44.799Z,4.88
2023-04-08T14:06:29.947Z,4.38
2023-04-08T14:09:15.103Z,6.78
2023-04-08T14:12:00.305Z,6.60
2023-04-08T14:14:45.463Z,4.57
2023-04-08T14:17:30.312Z,12.20
2023-04-08T14:20:15.542Z,18.92
2023-04-08T14:23:00.647Z,3.63
2023-04-08T14:25:45.945Z,5.05
2023-04-08T14:28:30.960Z,9.10
2023-04-08T14:31:16.257Z,4.82
2023-04-08T14:34:01.518Z,5.10
2023-04-08T14:36:46.697Z,5.82
2023-04-08T14:39:31.628Z,2.63
2023-04-08T14:42:18.243Z,6.07
2023-04-08T14:45:03.701Z,4.93
2023-04-08T14:47:48.885Z,5.60
2023-04-08T14:50:33.867Z,5.40
2023-04-08T14:53:19.090Z,5.65
2023-04-08T14:56:05.064Z,3.70
2023-04-08T14:58:50.463Z,5.28
2023-04-08T15:01:36.242Z,3.70
2023-04-08T15:04:21.408Z,4.82
2023-04-08T15:07:06.564Z,5.43
2023-04-08T15:09:51.729Z,11.20
2023-04-08T15:12:36.785Z,5.30
2023-04-08T15:15:21.830Z,9.13
2023-04-08T15:18:07.256Z,3.53
2023-04-08T15:20:52.314Z,2.95
2023-04-08T15:23:41.845Z,5.05
2023-04-08T15:26:27.737Z,3.10
2023-04-08T15:29:13.358Z,4.88
2023-04-08T15:31:58.713Z,2.75
2023-04-08T15:34:43.931Z,5.40
2023-04-08T15:37:28.990Z,3.70
2023-04-08T15:40:14.536Z,4.35
2023-04-08T15:42:59.652Z,3.95
2023-04-08T15:45:44.833Z,3.80
2023-04-08T15:48:29.959Z,3.42
2023-04-08T15:51:15.438Z,3.90
2023-04-08T15:54:01.403Z,3.78
2023-04-08T15:56:46.797Z,3.60
2023-04-08T15:59:32.320Z,2.55
2023-04-08T16:02:17.706Z,4.57
2023-04-08T16:05:03.461Z,8.00
2023-04-08T16:07:48.632Z,3.03
2023-04-08T16:10:34.389Z,6.20
2023-04-08T16:13:19.423Z,2.28
2023-04-08T16:16:04.694Z,4.10
2023-04-08T16:18:50.151Z,4.20
2023-04-08T16:21:36.062Z,4.38
2023-04-08T16:24:21.529Z,4.13
2023-04-08T16:27:06.742Z,4.05
2023-04-08T16:29:52.061Z,3.70
2023-04-08T16:32:37.212Z,6.57
2023-04-08T16:35:22.364Z,3.33
2023-04-08T16:38:07.705Z,2.83
2023-04-08T16:40:54.155Z,5.85
2023-04-08T16:43:39.330Z,6.15
2023-04-08T16:46:24.532Z,5.47
2023-04-08T16:49:09.764Z,8.52
2023-04-08T16:51:54.953Z,6.22
2023-04-08T16:54:39.859Z,4.20
2023-04-08T16:57:25.283Z,2.97
2023-04-08T17:00:10.946Z,2.95
2023-04-08T17:02:57.290Z,6.25
2023-04-08T17:05:42.417Z,6.07
2023-04-08T17:08:27.722Z,3.75
2023-04-08T17:11:14.689Z,5.53
2023-04-08T17:13:59.888Z,4.65
2023-04-08T17:16:44.897Z,3.88
2023-04-08T17:19:29.896Z,4.53
2023-04-08T17:22:15.124Z,4.78
2023-04-08T17:25:00.484Z,4.28
2023-04-08T17:27:45.685Z,3.38
2023-04-08T17:30:30.565Z,3.83
2023-04-08T17:33:15.957Z,3.33
2023-04-08T17:36:01.586Z,3.60
2023-04-08T17:38:49.341Z,4.85
2023-04-08T17:41:40.194Z,4.47
2023-04-08T17:44:30.088Z,2.38
2023-04-08T17:47:15.529Z,3.70
2023-04-08T17:50:00.461Z,2.60
2023-04-08T17:52:48.820Z,3.65
2023-04-08T17:55:33.910Z,2.45
2023-04-08T17:58:19.080Z,2.75
2023-04-08T18:01:04.282Z,3.92
2023-04-08T18:03:52.701Z,7.45
2023-04-08T18:06:38.449Z,3.85
2023-04-08T18:09:23.321Z,2.53
2023-04-08T18:12:08.507Z,4.88
2023-04-08T18:14:53.748Z,2.47
2023-04-08T18:17:38.690Z,3.78
2023-04-08T18:20:24.024Z,3.53
2023-04-08T18:23:09.061Z,3.10
2023-04-08T18:25:54.457Z,4.28
2023-04-08T18:28:39.940Z,3.40
2023-04-08T18:31:25.127Z,5.25
2023-04-08T18:34:10.683Z,3.53
2023-04-08T18:36:56.302Z,5.80
2023-04-08T18:39:41.594Z,6.07
2023-04-08T18:42:26.815Z,9.15
2023-04-08T18:45:12.058Z,11.40
2023-04-08T18:47:57.384Z,10.90
2023-04-08T18:50:42.509Z,8.48
2023-04-08T18:53:28.604Z,8.75
2023-04-08T18:56:17.994Z,9.60
2023-04-08T18:59:03.603Z,9.85
2023-04-08T19:01:48.914Z,8.95
2023-04-08T19:04:33.992Z,20.45
2023-04-08T19:07:19.051Z,23.70
2023-04-08T19:10:04.667Z,23.40
2023-04-08T19:12:49.751Z,11.60
2023-04-08T19:15:35.544Z,13.05
2023-04-08T19:18:20.693Z,5.45
2023-04-08T19:21:06.210Z,5.63
2023-04-08T19:23:51.616Z,16.30
2023-04-08T19:26:36.736Z,12.68
2023-04-08T19:29:23.398Z,19.08
2023-04-08T19:32:08.374Z,12.90
2023-04-08T19:34:53.414Z,8.20
2023-04-08T19:37:38.335Z,8.77
2023-04-08T19:40:23.405Z,7.82
2023-04-08T19:43:08.658Z,9.30
2023-04-08T19:45:54.593Z,9.75
2023-04-08T19:48:39.851Z,8.52
2023-04-08T19:51:25.102Z,10.02
2023-04-08T19:54:11.937Z,9.35
2023-04-08T19:56:58.526Z,9.65
2023-04-08T19:59:43.567Z,12.85
2023-04-08T20:02:28.939Z,12.23
2023-04-08T20:05:16.471Z,10.98
2023-04-08T20:08:01.725Z,11.30
2023-04-08T20:10:46.784Z,9.60
2023-04-08T20:13:31.789Z,9.57
2023-04-08T20:16:16.938Z,11.98
2023-04-08T20:19:02.011Z,8.75
2023-04-08T20:21:47.295Z,10.23
2023-04-08T20:24:32.628Z,14.25
2023-04-08T20:27:19.019Z,11.73
2023-04-08T20:30:05.429Z,12.48
2023-04-08T20:32:50.575Z,12.65
2023-04-08T20:35:37.450Z,11.95
2023-04-08T20:38:23.628Z,10.95
2023-04-08T20:41:08.378Z,13.57
2023-04-08T20:43:54.386Z,12.63
2023-04-08T20:46:41.250Z,13.20
2023-04-08T20:49:26.665Z,11.63
2023-04-08T20:52:11.657Z,11.13
2023-04-08T20:54:56.591Z,11.90
2023-04-08T20:57:42.114Z,12.57
2023-04-08T21:00:27.849Z,10.60
2023-04-08T21:03:14.059Z,12.20
2023-04-08T21:05:59.576Z,16.23
2023-04-08T21:08:45.304Z,12.25
2023-04-08T21:11:30.309Z,13.15
2023-04-08T21:14:15.745Z,14.18
2023-04-08T21:17:01.083Z,12.48
2023-04-08T21:19:46.735Z,12.60
2023-04-08T21:22:32.742Z,14.27
2023-04-08T21:25:18.521Z,12.88
2023-04-08T21:28:03.640Z,15.30
2023-04-08T21:30:49.072Z,15.75
2023-04-08T21:33:34.145Z,17.92
2023-04-08T21:36:20.354Z,15.70
2023-04-08T21:39:06.241Z,18.90
2023-04-08T21:41:51.319Z,17.00
2023-04-08T21:44:36.596Z,17.83
2023-04-08T21:47:21.852Z,16.25
2023-04-08T21:50:07.901Z,19.52
2023-04-08T21:52:53.106Z,18.08
2023-04-08T21:55:38.161Z,14.10
2023-04-08T21:58:23.438Z,14.38
2023-04-08T22:01:08.405Z,15.32
2023-04-08T22:03:55.475Z,14.07
2023-04-08T22:06:41.386Z,11.48
2023-04-08T22:09:27.075Z,13.05
2023-04-08T22:12:12.320Z,14.52
2023-04-08T22:14:57.780Z,18.80
2023-04-08T22:17:42.959Z,15.20
2023-04-08T22:20:28.348Z,26.63
2023-04-08T22:23:13.421Z,20.88
2023-04-08T22:25:58.648Z,21.23
2023-04-08T22:28:44.519Z,18.27
2023-04-08T22:31:29.413Z,20.15
2023-04-08T22:34:14.436Z,24.88
2023-04-08T22:36:59.205Z,14.65
2023-04-08T22:39:44.238Z,13.10
2023-04-08T22:42:29.481Z,14.35
2023-04-08T22:45:14.894Z,14.48
2023-04-08T22:48:00.076Z,14.13
2023-04-08T22:50:45.229Z,15.40
2023-04-08T22:53:30.171Z,16.67
2023-04-08T22:56:15.411Z,15.43
2023-04-08T22:59:01.002Z,17.83
2023-04-08T23:01:46.430Z,20.83
2023-04-08T23:04:31.848Z,22.33
2023-04-08T23:07:16.845Z,23.20
2023-04-08T23:10:01.953Z,24.70
2023-04-08T23:12:47.281Z,39.45
2023-04-08T23:15:32.170Z,32.42
2023-04-08T23:18:17.226Z,43.55
2023-04-08T23:21:02.216Z,37.40
2023-04-08T23:23:47.532Z,38.55
2023-04-08T23:26:32.789Z,40.35
2023-04-08T23:29:18.017Z,46.28
2023-04-08T23:32:03.168Z,39.38
2023-04-08T23:34:48.308Z,38.75
2023-04-08T23:37:33.296Z,35.97
2023-04-08T23:40:18.326Z,34.47
2023-04-08T23:43:03.587Z,35.78
2023-04-08T23:45:48.689Z,36.13
2023-04-08T23:48:34.067Z,28.88
2023-04-08T23:51:19.258Z,36.60
2023-04-08T23:54:04.314Z,28.17
2023-04-08T23:56:49.572Z,27.83
2023-04-08T23:59:34.762Z,22.65
